Todd, North Carolina
Current Conditions -  °F | °C
As of 5:35 AM on Thursday 27 Nov 2014 (Local Time) from KTNB Reporting Station
Light Snow Light Snow  
Wind Chill: 26°   Ceiling: 1600
Heat Index: 32°   Visibility: 3mi
Dew Point: 31°   Wind: 6mph
Humidity: 97%   Direction: 320°NW
Pressure: 29.92"   Gusts: NA
Location:  36.31°N, 81.6°W
Report Text: KTNB 271035Z AUTO 32005KT 3SM -SN SCT010 BKN016 OVC024 00/M01 A2992 RMK AO2 T10021006
Loading
Personal Weather Stations






























Interactive Weather Map New forecast layout! Learn more

10-Day Weather Forecast

Advertisements
Track Severe Weather on mobile